createdAt,value
2023-04-18T00:00:26.613Z,48.51
2023-04-18T00:01:26.617Z,48.12
2023-04-18T00:02:26.664Z,48.21
2023-04-18T00:03:26.716Z,48.12
2023-04-18T00:04:26.772Z,47.96
2023-04-18T00:05:26.654Z,47.52
2023-04-18T00:06:26.549Z,47.44
2023-04-18T00:07:26.549Z,47.31
2023-04-18T00:08:26.520Z,47.33
2023-04-18T00:09:26.555Z,47.28
2023-04-18T00:10:26.510Z,47.36
2023-04-18T00:11:26.504Z,47.77
2023-04-18T00:12:26.477Z,47.96
2023-04-18T00:13:26.462Z,48.21
2023-04-18T00:14:26.420Z,48.49
2023-04-18T00:15:26.439Z,48.57
2023-04-18T00:16:26.454Z,48.65
2023-04-18T00:17:26.443Z,49.28
2023-04-18T00:18:26.366Z,49.31
2023-04-18T00:19:26.366Z,49.61
2023-04-18T00:20:26.350Z,49.90
2023-04-18T00:21:26.341Z,50.14
2023-04-18T00:22:26.343Z,50.14
2023-04-18T00:23:26.324Z,50.44
2023-04-18T00:24:26.290Z,50.14
2023-04-18T00:25:26.297Z,50.47
2023-04-18T00:26:26.284Z,50.78
2023-04-18T00:27:26.270Z,50.75
2023-04-18T00:28:26.266Z,50.56
2023-04-18T00:29:26.230Z,50.78
2023-04-18T00:30:26.228Z,50.35
2023-04-18T00:31:26.258Z,50.63
2023-04-18T00:32:26.289Z,50.63
2023-04-18T00:33:26.182Z,50.69
2023-04-18T00:34:26.160Z,50.87
2023-04-18T00:35:26.173Z,50.75
2023-04-18T00:36:26.165Z,51.06
2023-04-18T00:37:26.134Z,50.97
2023-04-18T00:38:26.116Z,51.03
2023-04-18T00:39:26.091Z,50.87
2023-04-18T00:40:26.092Z,51.00
2023-04-18T00:41:26.073Z,50.63
2023-04-18T00:42:26.174Z,50.90
2023-04-18T00:43:26.036Z,50.78
2023-04-18T00:44:26.090Z,50.81
2023-04-18T00:45:26.075Z,50.23
2023-04-18T00:46:26.046Z,49.96
2023-04-18T00:47:26.050Z,49.67
2023-04-18T00:48:26.009Z,49.31
2023-04-18T00:49:25.973Z,48.91
2023-04-18T00:50:25.953Z,48.37
2023-04-18T00:51:25.929Z,48.07
2023-04-18T00:52:25.978Z,47.44
2023-04-18T00:53:25.924Z,47.26
2023-04-18T00:54:25.948Z,46.89
2023-04-18T00:55:25.925Z,46.26
2023-04-18T00:56:25.931Z,46.16
2023-04-18T00:57:25.847Z,45.61
2023-04-18T00:58:25.873Z,45.66
2023-04-18T00:59:25.838Z,45.17
2023-04-18T01:00:25.842Z,45.02
2023-04-18T01:01:25.828Z,44.50
2023-04-18T01:02:25.936Z,44.54
2023-04-18T01:03:25.895Z,44.74
2023-04-18T01:04:25.825Z,44.22
2023-04-18T01:05:25.777Z,44.31
2023-04-18T01:06:25.752Z,44.50
2023-04-18T01:07:25.729Z,44.54
2023-04-18T01:08:25.742Z,44.40
2023-04-18T01:09:25.701Z,43.98
2023-04-18T01:10:25.687Z,44.26
2023-04-18T01:11:25.680Z,43.85
2023-04-18T01:12:25.676Z,44.31
2023-04-18T01:13:25.744Z,44.26
2023-04-18T01:14:25.628Z,44.64
2023-04-18T01:15:25.624Z,44.83
2023-04-18T01:16:25.688Z,44.97
2023-04-18T01:17:25.607Z,44.93
2023-04-18T01:18:25.593Z,45.51
2023-04-18T01:19:25.578Z,45.76
2023-04-18T01:20:25.567Z,45.07
2023-04-18T01:21:25.552Z,45.61
2023-04-18T01:22:25.523Z,46.21
2023-04-18T01:23:25.508Z,45.91
2023-04-18T01:24:25.510Z,46.16
2023-04-18T01:25:25.501Z,46.32
2023-04-18T01:26:25.486Z,45.96
2023-04-18T01:27:25.499Z,46.37
2023-04-18T01:28:25.473Z,46.47
2023-04-18T01:29:25.450Z,46.16
2023-04-18T01:30:25.430Z,46.68
2023-04-18T01:31:25.455Z,46.99
2023-04-18T01:32:25.413Z,46.11
2023-04-18T01:33:25.403Z,46.78
2023-04-18T01:34:25.372Z,46.06
2023-04-18T01:35:25.360Z,46.89
2023-04-18T01:36:25.369Z,46.63
2023-04-18T01:37:25.323Z,46.16
2023-04-18T01:38:25.332Z,46.42
2023-04-18T01:39:25.318Z,46.68
2023-04-18T01:40:25.286Z,46.11
2023-04-18T01:41:25.297Z,45.91
2023-04-18T01:42:25.272Z,45.96
2023-04-18T01:43:25.256Z,46.37
2023-04-18T01:44:25.285Z,45.71
2023-04-18T01:45:25.277Z,45.56
2023-04-18T01:46:25.233Z,45.51
2023-04-18T01:47:25.224Z,45.61
2023-04-18T01:48:25.178Z,45.61
2023-04-18T01:49:25.262Z,45.46
2023-04-18T01:50:25.202Z,45.36
2023-04-18T01:51:25.146Z,45.22
2023-04-18T01:52:25.146Z,45.36
2023-04-18T01:53:25.104Z,45.22
2023-04-18T01:54:25.107Z,45.12
2023-04-18T01:55:25.083Z,45.22
2023-04-18T01:56:25.092Z,45.22
2023-04-18T01:57:25.095Z,45.02
2023-04-18T01:58:25.046Z,45.31
2023-04-18T01:59:25.040Z,45.31
2023-04-18T02:00:25.053Z,45.22
2023-04-18T02:01:25.130Z,45.07
2023-04-18T02:02:25.079Z,45.02
2023-04-18T02:03:25.099Z,45.71
2023-04-18T02:04:24.995Z,45.27
2023-04-18T02:05:24.966Z,45.17
2023-04-18T02:06:24.947Z,45.02
2023-04-18T02:07:24.941Z,45.51
2023-04-18T02:08:24.960Z,45.36
2023-04-18T02:09:24.915Z,45.81
2023-04-18T02:10:24.919Z,45.07
2023-04-18T02:11:24.984Z,45.51
2023-04-18T02:12:24.906Z,45.71
2023-04-18T02:13:24.906Z,45.56
2023-04-18T02:14:24.871Z,45.66
2023-04-18T02:15:24.837Z,45.81
2023-04-18T02:16:24.916Z,45.36
2023-04-18T02:17:24.852Z,46.26
2023-04-18T02:18:24.841Z,45.46
2023-04-18T02:19:24.837Z,45.96
2023-04-18T02:20:24.761Z,45.76
2023-04-18T02:21:24.745Z,46.06
2023-04-18T02:22:24.777Z,46.01
2023-04-18T02:23:24.706Z,45.96
2023-04-18T02:24:24.728Z,45.71
2023-04-18T02:25:24.692Z,46.37
2023-04-18T02:26:24.710Z,46.42
2023-04-18T02:27:24.675Z,46.52
2023-04-18T02:28:24.694Z,45.71
2023-04-18T02:29:24.650Z,46.11
2023-04-18T02:30:24.703Z,45.96
2023-04-18T02:31:24.722Z,46.21
2023-04-18T02:32:24.754Z,45.56
2023-04-18T02:33:24.691Z,45.86
2023-04-18T02:34:24.641Z,46.32
2023-04-18T02:35:24.699Z,45.91
2023-04-18T02:36:24.667Z,46.47
2023-04-18T02:37:24.669Z,46.21
2023-04-18T02:38:24.520Z,46.06
2023-04-18T02:39:24.534Z,46.16
2023-04-18T02:40:24.525Z,46.63
2023-04-18T02:41:24.480Z,46.68
2023-04-18T02:42:24.498Z,46.63
2023-04-18T02:43:24.486Z,46.21
2023-04-18T02:44:24.464Z,46.83
2023-04-18T02:45:24.444Z,46.94
2023-04-18T02:46:24.590Z,46.83
2023-04-18T02:47:24.438Z,47.12
2023-04-18T02:48:24.440Z,46.63
2023-04-18T02:49:24.377Z,46.89
2023-04-18T02:50:24.583Z,46.63
2023-04-18T02:51:24.366Z,46.94
2023-04-18T02:52:24.359Z,46.78
2023-04-18T02:53:24.330Z,47.10
2023-04-18T02:54:24.318Z,46.83
2023-04-18T02:55:24.320Z,46.99
2023-04-18T02:56:24.297Z,46.63
2023-04-18T02:57:24.263Z,46.73
2023-04-18T02:58:24.263Z,46.47
2023-04-18T02:59:24.245Z,46.63
2023-04-18T03:00:24.247Z,46.78
2023-04-18T03:01:24.230Z,46.63
2023-04-18T03:02:24.270Z,46.01
2023-04-18T03:03:24.242Z,46.68
2023-04-18T03:04:24.207Z,46.52
2023-04-18T03:05:24.191Z,46.47
2023-04-18T03:06:24.173Z,46.78
2023-04-18T03:07:24.152Z,46.37
2023-04-18T03:08:24.123Z,46.26
2023-04-18T03:09:24.140Z,45.76
2023-04-18T03:10:24.102Z,45.96
2023-04-18T03:11:24.105Z,45.96
2023-04-18T03:12:24.071Z,45.71
2023-04-18T03:13:24.139Z,46.01
2023-04-18T03:14:24.079Z,45.51
2023-04-18T03:15:24.032Z,46.01
2023-04-18T03:16:24.121Z,45.61
2023-04-18T03:17:24.093Z,45.96
2023-04-18T03:18:23.996Z,46.11
2023-04-18T03:19:23.977Z,46.26
2023-04-18T03:20:23.971Z,46.21
2023-04-18T03:21:23.953Z,46.42
2023-04-18T03:22:23.961Z,46.63
2023-04-18T03:23:23.945Z,46.52
2023-04-18T03:24:23.936Z,47.02
2023-04-18T03:25:23.911Z,47.04
2023-04-18T03:26:23.921Z,47.15
2023-04-18T03:27:23.867Z,47.39
2023-04-18T03:28:23.868Z,47.58
2023-04-18T03:29:23.867Z,47.82
2023-04-18T03:30:23.832Z,47.66
2023-04-18T03:31:23.975Z,48.51
2023-04-18T03:32:23.870Z,48.74
2023-04-18T03:33:23.818Z,48.74
2023-04-18T03:34:23.807Z,49.14
2023-04-18T03:35:23.779Z,49.23
2023-04-18T03:36:23.771Z,49.46
2023-04-18T03:37:23.747Z,48.91
2023-04-18T03:38:23.743Z,49.67
2023-04-18T03:39:23.722Z,49.11
2023-04-18T03:40:23.740Z,49.17
2023-04-18T03:41:23.705Z,49.46
2023-04-18T03:42:23.706Z,49.11
2023-04-18T03:43:23.669Z,49.67
2023-04-18T03:44:23.663Z,49.17
2023-04-18T03:45:23.709Z,49.87
2023-04-18T03:46:26.046Z,49.69
2023-04-18T03:47:23.662Z,49.67
2023-04-18T03:48:23.632Z,49.69
2023-04-18T03:49:23.597Z,49.75
2023-04-18T03:50:23.567Z,50.17
2023-04-18T03:51:23.557Z,50.29
2023-04-18T03:52:23.550Z,50.38
2023-04-18T03:53:23.555Z,50.75
2023-04-18T03:54:23.521Z,51.09
2023-04-18T03:55:23.510Z,51.15
2023-04-18T03:56:23.523Z,51.09
2023-04-18T03:57:23.491Z,51.21
2023-04-18T03:58:23.495Z,51.37
2023-04-18T03:59:23.501Z,51.62
2023-04-18T04:00:23.455Z,52.27
2023-04-18T04:01:23.435Z,52.17
2023-04-18T04:02:23.557Z,51.98
2023-04-18T04:03:23.475Z,52.14
2023-04-18T04:04:23.482Z,52.20
2023-04-18T04:05:23.409Z,51.56
2023-04-18T04:06:23.378Z,51.69
2023-04-18T04:07:23.348Z,52.20
2023-04-18T04:08:23.351Z,52.56
2023-04-18T04:09:23.328Z,52.17
2023-04-18T04:10:23.328Z,52.24
2023-04-18T04:11:23.322Z,52.66
2023-04-18T04:12:23.365Z,52.76
2023-04-18T04:13:23.286Z,52.86
2023-04-18T04:14:23.256Z,52.43
2023-04-18T04:15:23.246Z,52.37
2023-04-18T04:16:23.351Z,52.43
2023-04-18T04:17:23.255Z,52.50
2023-04-18T04:18:23.219Z,52.07
2023-04-18T04:19:23.199Z,52.63
2023-04-18T04:20:23.213Z,53.00
2023-04-18T04:21:23.196Z,52.53
2023-04-18T04:22:23.188Z,52.96
2023-04-18T04:23:23.129Z,52.90
2023-04-18T04:24:23.126Z,52.56
2023-04-18T04:25:23.150Z,52.86
2023-04-18T04:26:23.130Z,53.03
2023-04-18T04:27:23.085Z,53.00
2023-04-18T04:28:23.117Z,52.33
2023-04-18T04:29:23.056Z,52.76
2023-04-18T04:30:23.080Z,52.63
2023-04-18T04:31:23.031Z,52.83
2023-04-18T04:32:23.085Z,52.66
2023-04-18T04:33:22.996Z,51.98
2023-04-18T04:34:23.033Z,52.47
2023-04-18T04:35:22.991Z,52.63
2023-04-18T04:36:23.027Z,53.00
2023-04-18T04:37:22.982Z,52.47
2023-04-18T04:38:22.960Z,53.20
2023-04-18T04:39:22.939Z,53.03
2023-04-18T04:40:22.971Z,53.20
2023-04-18T04:41:22.897Z,53.30
2023-04-18T04:42:22.918Z,53.44
2023-04-18T04:43:22.893Z,52.93
2023-04-18T04:44:22.915Z,53.37
2023-04-18T04:45:22.850Z,52.93
2023-04-18T04:46:23.199Z,53.27
2023-04-18T04:47:22.850Z,52.96
2023-04-18T04:48:22.819Z,52.96
2023-04-18T04:49:22.897Z,52.80
2023-04-18T04:50:22.797Z,53.06
2023-04-18T04:51:22.786Z,52.63
2023-04-18T04:52:22.754Z,52.40
2023-04-18T04:53:22.746Z,52.33
2023-04-18T04:54:22.743Z,52.11
2023-04-18T04:55:22.741Z,52.43
2023-04-18T04:56:22.770Z,52.27
2023-04-18T04:57:22.700Z,52.27
2023-04-18T04:58:22.700Z,52.40
2023-04-18T04:59:22.675Z,52.50
2023-04-18T05:00:22.657Z,52.53
2023-04-18T05:01:22.665Z,52.30
2023-04-18T05:02:22.724Z,52.66
2023-04-18T05:03:22.765Z,52.47
2023-04-18T05:04:22.771Z,52.43
2023-04-18T05:05:22.629Z,52.33
2023-04-18T05:06:22.584Z,52.47
2023-04-18T05:07:22.573Z,52.40
2023-04-18T05:08:22.570Z,52.83
2023-04-18T05:09:22.539Z,52.70
2023-04-18T05:10:22.527Z,52.50
2023-04-18T05:11:22.515Z,52.53
2023-04-18T05:12:22.511Z,52.63
2023-04-18T05:13:22.481Z,52.50
2023-04-18T05:14:22.506Z,52.56
2023-04-18T05:15:22.463Z,52.53
2023-04-18T05:16:22.492Z,53.00
2023-04-18T05:17:22.471Z,53.40
2023-04-18T05:18:22.437Z,54.06
2023-04-18T05:19:22.406Z,54.23
2023-04-18T05:20:22.411Z,54.55
2023-04-18T05:21:22.382Z,54.55
2023-04-18T05:22:22.355Z,54.94
2023-04-18T05:23:22.361Z,55.23
2023-04-18T05:24:22.345Z,55.31
2023-04-18T05:25:22.310Z,55.64
2023-04-18T05:26:22.316Z,55.78
2023-04-18T05:27:22.309Z,56.24
2023-04-18T05:28:22.266Z,55.97
2023-04-18T05:29:22.293Z,56.01
2023-04-18T05:30:22.271Z,56.16
2023-04-18T05:31:22.316Z,56.39
2023-04-18T05:32:22.289Z,56.39
2023-04-18T05:33:22.218Z,56.16
2023-04-18T05:34:22.214Z,56.58
2023-04-18T05:35:22.259Z,56.81
2023-04-18T05:36:22.204Z,57.27
2023-04-18T05:37:22.167Z,57.55
2023-04-18T05:38:22.134Z,58.11
2023-04-18T05:39:22.203Z,58.55
2023-04-18T05:40:22.114Z,58.84
2023-04-18T05:41:22.109Z,59.34
2023-04-18T05:42:22.129Z,59.90
2023-04-18T05:43:22.077Z,59.72
2023-04-18T05:44:22.234Z,59.81
2023-04-18T05:45:22.102Z,59.81
2023-04-18T05:46:22.080Z,60.20
2023-04-18T05:47:22.108Z,60.46
2023-04-18T05:48:22.027Z,60.85
2023-04-18T05:49:22.093Z,61.34
2023-04-18T05:50:22.020Z,61.52
2023-04-18T05:51:21.995Z,61.30
2023-04-18T05:52:21.978Z,61.66
2023-04-18T05:53:22.019Z,61.48
2023-04-18T05:54:21.987Z,62.39
2023-04-18T05:55:21.940Z,62.91
2023-04-18T05:56:21.928Z,63.15
2023-04-18T05:57:21.915Z,63.92
2023-04-18T05:58:21.899Z,64.41
2023-04-18T05:59:21.916Z,64.86
2023-04-18T06:00:21.864Z,65.26
2023-04-18T06:01:21.844Z,66.14
2023-04-18T06:02:22.048Z,66.61
2023-04-18T06:03:21.974Z,67.85
2023-04-18T06:04:22.062Z,68.63
2023-04-18T06:05:22.009Z,69.78
2023-04-18T06:06:21.869Z,71.32
2023-04-18T06:07:21.769Z,71.62
2023-04-18T06:08:21.755Z,72.81
2023-04-18T06:09:21.781Z,73.57
2023-04-18T06:10:21.761Z,75.29
2023-04-18T06:11:21.748Z,76.89
2023-04-18T06:12:21.722Z,77.03
2023-04-18T06:13:21.685Z,77.45
2023-04-18T06:14:21.685Z,78.32
2023-04-18T06:15:21.677Z,78.91
2023-04-18T06:16:21.786Z,79.97
2023-04-18T06:17:21.712Z,80.82
2023-04-18T06:18:21.665Z,80.35
2023-04-18T06:19:21.637Z,81.37
2023-04-18T06:20:21.583Z,82.41
2023-04-18T06:21:21.585Z,84.06
2023-04-18T06:22:21.645Z,87.03
2023-04-18T06:23:21.580Z,88.50
2023-04-18T06:24:21.584Z,88.60
2023-04-18T06:25:21.596Z,89.45
2023-04-18T06:26:21.573Z,91.50
2023-04-18T06:27:30.615Z,94.60
2023-04-18T06:28:21.498Z,94.26
2023-04-18T06:29:21.514Z,94.10
2023-04-18T06:30:21.486Z,97.10
2023-04-18T06:31:21.602Z,100.90
2023-04-18T06:32:21.476Z,103.59
2023-04-18T06:33:21.433Z,106.28
2023-04-18T06:34:21.416Z,108.20
2023-04-18T06:35:21.483Z,110.63
2023-04-18T06:36:21.394Z,112.26
2023-04-18T06:37:21.418Z,113.71
2023-04-18T06:38:21.364Z,115.04
2023-04-18T06:39:21.381Z,114.96
2023-04-18T06:40:21.373Z,116.48
2023-04-18T06:41:21.368Z,118.21
2023-04-18T06:42:22.602Z,120.42
2023-04-18T06:43:21.373Z,123.25
2023-04-18T06:44:21.300Z,124.91
2023-04-18T06:45:21.277Z,126.13
2023-04-18T06:46:21.415Z,127.47
2023-04-18T06:47:21.297Z,132.10
2023-04-18T06:48:21.297Z,132.73
2023-04-18T06:49:25.180Z,135.08
2023-04-18T06:50:21.249Z,137.07
2023-04-18T06:51:21.271Z,137.07
2023-04-18T06:52:21.184Z,139.24
2023-04-18T06:53:21.189Z,144.65
2023-04-18T06:54:21.242Z,150.36
2023-04-18T06:55:21.165Z,156.54
2023-04-18T06:56:21.155Z,160.13
2023-04-18T06:57:21.209Z,163.41
2023-04-18T06:58:21.106Z,167.00
2023-04-18T06:59:21.105Z,171.62
2023-04-18T07:00:21.222Z,176.50
2023-04-18T07:01:21.177Z,182.46
2023-04-18T07:02:21.130Z,184.88
2023-04-18T07:03:21.255Z,186.85
2023-04-18T07:04:21.231Z,189.65
2023-04-18T07:05:21.055Z,195.39
2023-04-18T07:06:20.967Z,199.17
2023-04-18T07:07:21.061Z,200.50
2023-04-18T07:08:20.957Z,200.50
2023-04-18T07:09:20.946Z,204.87
2023-04-18T07:10:20.928Z,209.29
2023-04-18T07:11:20.972Z,213.36
2023-04-18T07:12:20.910Z,216.30
2023-04-18T07:13:20.909Z,219.48
2023-04-18T07:14:20.939Z,221.24
2023-04-18T07:15:20.894Z,223.65
2023-04-18T07:16:20.934Z,226.26
2023-04-18T07:17:20.924Z,228.77
2023-04-18T07:18:34.217Z,229.25
2023-04-18T07:19:20.834Z,230.38
2023-04-18T07:20:20.782Z,232.98
2023-04-18T07:21:20.813Z,233.15
2023-04-18T07:22:20.809Z,237.69
2023-04-18T07:23:20.787Z,239.42
2023-04-18T07:24:20.757Z,240.12
2023-04-18T07:25:20.769Z,241.52
2023-04-18T07:26:20.730Z,243.31
2023-04-18T07:27:20.707Z,246.40
2023-04-18T07:28:20.678Z,245.85
2023-04-18T07:29:20.694Z,244.39
2023-04-18T07:30:20.713Z,246.40
2023-04-18T07:31:20.676Z,248.07
2023-04-18T07:32:20.682Z,244.76
2023-04-18T07:33:20.636Z,244.76
2023-04-18T07:34:20.607Z,242.24
2023-04-18T07:35:20.598Z,242.41
2023-04-18T07:36:20.588Z,245.49
2023-04-18T07:37:20.637Z,247.51
2023-04-18T07:38:20.632Z,244.76
2023-04-18T07:39:20.594Z,245.12
2023-04-18T07:40:20.552Z,248.64
2023-04-18T07:41:20.504Z,253.42
2023-04-18T07:42:20.514Z,255.38
2023-04-18T07:43:21.015Z,253.62
2023-04-18T07:44:20.481Z,254.40
2023-04-18T07:45:20.460Z,257.58
2023-04-18T07:46:20.468Z,257.98
2023-04-18T07:47:22.387Z,255.38
2023-04-18T07:48:20.536Z,255.19
2023-04-18T07:49:20.437Z,256.18
2023-04-18T07:50:20.413Z,256.78
2023-04-18T07:51:20.408Z,263.98
2023-04-18T07:52:20.361Z,263.14
2023-04-18T07:53:20.388Z,260.85
2023-04-18T07:54:20.348Z,263.35
2023-04-18T07:55:20.406Z,269.82
2023-04-18T07:56:20.367Z,272.05
2023-04-18T07:57:20.298Z,275.69
2023-04-18T07:58:20.309Z,278.73
2023-04-18T07:59:20.310Z,280.87
2023-04-18T08:00:20.253Z,281.11
2023-04-18T08:01:20.286Z,281.83
2023-04-18T08:02:20.362Z,279.20
2023-04-18T08:03:20.487Z,279.67
2023-04-18T08:04:20.453Z,282.80
2023-04-18T08:05:20.291Z,286.98
2023-04-18T08:06:20.215Z,288.75
2023-04-18T08:07:20.192Z,285.49
2023-04-18T08:08:20.236Z,280.15
2023-04-18T08:09:20.163Z,278.96
2023-04-18T08:10:22.495Z,280.15
2023-04-18T08:11:20.125Z,279.91
2023-04-18T08:12:20.129Z,269.16
2023-04-18T08:13:20.085Z,272.05
2023-04-18T08:14:20.101Z,275.69
2023-04-18T08:15:20.077Z,275.69
2023-04-18T08:16:20.087Z,273.86
2023-04-18T08:17:20.106Z,276.16
2023-04-18T08:18:20.014Z,280.39
2023-04-18T08:19:20.023Z,278.96
2023-04-18T08:20:20.009Z,278.49
2023-04-18T08:21:19.980Z,280.87
2023-04-18T08:22:19.975Z,276.39
2023-04-18T08:23:19.947Z,276.62
2023-04-18T08:24:19.954Z,276.85
2023-04-18T08:25:20.004Z,278.96
2023-04-18T08:26:20.055Z,279.20
2023-04-18T08:27:19.915Z,271.38
2023-04-18T08:28:19.883Z,270.49
2023-04-18T08:29:19.896Z,267.85
2023-04-18T08:30:19.872Z,269.60
2023-04-18T08:31:19.887Z,270.04
2023-04-18T08:32:19.877Z,267.85
2023-04-18T08:33:19.864Z,265.26
2023-04-18T08:34:19.866Z,268.28
2023-04-18T08:35:19.836Z,269.60
2023-04-18T08:36:19.779Z,270.26
2023-04-18T08:37:19.836Z,266.76
2023-04-18T08:38:19.776Z,262.72
2023-04-18T08:39:19.749Z,259.61
2023-04-18T08:40:19.730Z,259.00
2023-04-18T08:41:19.733Z,260.85
2023-04-18T08:42:19.726Z,263.35
2023-04-18T08:43:19.748Z,266.33
2023-04-18T08:44:19.660Z,268.94
2023-04-18T08:45:19.669Z,269.82
2023-04-18T08:46:19.662Z,269.82
2023-04-18T08:47:19.660Z,269.60
2023-04-18T08:48:19.632Z,270.04
2023-04-18T08:49:19.663Z,275.00
2023-04-18T08:50:19.608Z,281.59
2023-04-18T08:51:19.637Z,291.56
2023-04-18T08:52:19.576Z,298.70
2023-04-18T08:53:19.590Z,302.82
2023-04-18T08:54:19.569Z,313.18
2023-04-18T08:55:19.532Z,320.50
2023-04-18T08:56:19.523Z,327.18
2023-04-18T08:57:19.512Z,335.18
2023-04-18T08:58:19.493Z,341.43
2023-04-18T08:59:19.475Z,350.89
2023-04-18T09:00:19.466Z,357.75
2023-04-18T09:01:19.486Z,370.22
2023-04-18T09:02:19.515Z,385.56
2023-04-18T09:03:19.555Z,395.58
2023-04-18T09:04:19.461Z,402.97
2023-04-18T09:05:19.382Z,412.66
2023-04-18T09:06:19.566Z,418.86
2023-04-18T09:07:19.410Z,422.82
2023-04-18T09:08:19.342Z,430.16
2023-04-18T09:09:19.340Z,439.48
2023-04-18T09:10:19.431Z,442.39
2023-04-18T09:11:19.561Z,444.74
2023-04-18T09:12:19.337Z,446.82
2023-04-18T09:13:19.296Z,450.12
2023-04-18T09:14:19.299Z,456.57
2023-04-18T09:15:19.248Z,462.24
2023-04-18T09:16:19.309Z,463.85
2023-04-18T09:17:19.248Z,468.39
2023-04-18T09:18:19.195Z,466.43
2023-04-18T09:19:19.270Z,472.69
2023-04-18T09:20:19.181Z,479.81
2023-04-18T09:21:19.208Z,475.71
2023-04-18T09:22:19.167Z,472.02
2023-04-18T09:23:19.170Z,474.03
2023-04-18T09:24:19.126Z,477.75
2023-04-18T09:25:19.139Z,481.19
2023-04-18T09:26:19.116Z,481.53
2023-04-18T09:27:19.075Z,487.85
2023-04-18T09:28:19.089Z,493.61
2023-04-18T09:29:19.054Z,489.99
2023-04-18T09:30:19.207Z,490.71
2023-04-18T09:31:19.090Z,490.71
2023-04-18T09:32:19.034Z,491.79
2023-04-18T09:33:19.039Z,494.33
2023-04-18T09:34:18.988Z,502.12
2023-04-18T09:35:18.993Z,509.77
2023-04-18T09:36:19.070Z,514.47
2023-04-18T09:37:18.950Z,521.28
2023-04-18T09:38:18.951Z,526.62
2023-04-18T09:39:18.909Z,529.95
2023-04-18T09:40:18.941Z,538.91
2023-04-18T09:41:21.402Z,545.50
2023-04-18T09:42:18.933Z,546.39
2023-04-18T09:43:18.876Z,541.09
2023-04-18T09:44:18.976Z,544.61
2023-04-18T09:45:18.868Z,542.41
2023-04-18T09:46:18.904Z,543.73
2023-04-18T09:47:18.848Z,548.18
2023-04-18T09:48:18.913Z,547.73
2023-04-18T09:49:18.839Z,549.08
2023-04-18T09:50:18.815Z,554.54
2023-04-18T09:51:18.911Z,549.98
2023-04-18T09:52:18.731Z,552.25
2023-04-18T09:53:20.671Z,550.44
2023-04-18T09:54:18.762Z,557.78
2023-04-18T09:55:18.807Z,555.92
2023-04-18T09:56:18.711Z,562.46
2023-04-18T09:57:18.678Z,561.52
2023-04-18T09:58:18.688Z,565.79
2023-04-18T09:59:20.990Z,574.04
2023-04-18T10:00:18.660Z,580.51
2023-04-18T10:01:18.684Z,587.65
2023-04-18T10:02:18.651Z,592.33
2023-04-18T10:03:18.677Z,596.55
2023-04-18T10:04:18.682Z,591.28
2023-04-18T10:05:20.984Z,604.63
2023-04-18T10:06:18.568Z,612.94
2023-04-18T10:07:18.554Z,610.70
2023-04-18T10:08:18.555Z,625.54
2023-04-18T10:09:18.520Z,627.89
2023-04-18T10:10:18.492Z,641.12
2023-04-18T10:11:19.301Z,641.12
2023-04-18T10:12:18.471Z,636.24
2023-04-18T10:13:18.464Z,637.46
2023-04-18T10:14:18.726Z,636.85
2023-04-18T10:15:18.463Z,642.35
2023-04-18T10:16:18.504Z,649.84
2023-04-18T10:17:18.387Z,650.47
2023-04-18T10:18:18.439Z,660.74
2023-04-18T10:19:18.367Z,662.05
2023-04-18T10:20:18.387Z,673.37
2023-04-18T10:21:18.444Z,683.69
2023-04-18T10:22:18.349Z,688.61
2023-04-18T10:23:18.323Z,685.79
2023-04-18T10:24:18.323Z,687.90
2023-04-18T10:25:18.300Z,689.32
2023-04-18T10:26:18.274Z,698.67
2023-04-18T10:27:18.328Z,692.17
2023-04-18T10:28:18.246Z,683.69
2023-04-18T10:29:18.227Z,673.37
2023-04-18T10:30:18.234Z,673.37
2023-04-18T10:31:18.305Z,665.34
2023-04-18T10:32:18.197Z,676.09
2023-04-18T10:33:27.961Z,684.39
2023-04-18T10:34:18.250Z,695.05
2023-04-18T10:35:18.151Z,701.60
2023-04-18T10:36:18.158Z,709.79
2023-04-18T10:37:18.134Z,706.04
2023-04-18T10:38:18.134Z,703.08
2023-04-18T10:39:18.096Z,688.61
2023-04-18T10:40:18.087Z,683.69
2023-04-18T10:41:18.073Z,682.99
2023-04-18T10:42:18.084Z,684.39
2023-04-18T10:43:18.074Z,697.22
2023-04-18T10:44:18.058Z,698.67
2023-04-18T10:45:18.045Z,707.54
2023-04-18T10:46:31.023Z,709.79
2023-04-18T10:47:18.053Z,703.82
2023-04-18T10:48:18.035Z,709.04
2023-04-18T10:49:18.068Z,712.05
2023-04-18T10:50:18.090Z,709.04
2023-04-18T10:51:17.962Z,709.79
2023-04-18T10:52:17.952Z,706.04
2023-04-18T10:53:17.999Z,706.79
2023-04-18T10:54:17.917Z,706.04
2023-04-18T10:55:17.898Z,709.04
2023-04-18T10:56:17.926Z,715.10
2023-04-18T10:57:17.885Z,722.04
2023-04-18T10:58:17.875Z,725.17
2023-04-18T10:59:17.862Z,733.91
2023-04-18T11:00:17.854Z,731.51
2023-04-18T11:01:17.855Z,729.12
2023-04-18T11:02:17.827Z,730.71
2023-04-18T11:03:17.900Z,737.15
2023-04-18T11:04:18.185Z,736.34
2023-04-18T11:05:17.839Z,728.32
2023-04-18T11:06:17.787Z,730.71
2023-04-18T11:07:17.726Z,726.74
2023-04-18T11:08:17.739Z,719.71
2023-04-18T11:09:17.725Z,720.48
2023-04-18T11:10:17.760Z,713.57
2023-04-18T11:11:17.742Z,717.40
2023-04-18T11:12:17.747Z,720.48
2023-04-18T11:13:17.728Z,718.16
2023-04-18T11:14:17.861Z,719.71
2023-04-18T11:15:17.723Z,729.12
2023-04-18T11:16:17.662Z,722.82
2023-04-18T11:17:17.595Z,720.48
2023-04-18T11:18:17.589Z,713.57
2023-04-18T11:19:17.589Z,703.82
2023-04-18T11:20:17.608Z,703.08
2023-04-18T11:21:17.638Z,705.30
2023-04-18T11:22:17.717Z,705.30
2023-04-18T11:23:17.569Z,707.54
2023-04-18T11:24:17.562Z,713.57
2023-04-18T11:25:17.499Z,723.60
2023-04-18T11:26:17.552Z,720.48
2023-04-18T11:27:17.456Z,724.38
2023-04-18T11:28:17.507Z,718.94
2023-04-18T11:29:17.423Z,724.38
2023-04-18T11:30:17.462Z,717.40
2023-04-18T11:31:17.428Z,723.60
2023-04-18T11:32:17.506Z,718.16
2023-04-18T11:33:17.493Z,719.71
2023-04-18T11:34:17.529Z,718.16
2023-04-18T11:35:17.407Z,713.57
2023-04-18T11:36:17.369Z,715.86
2023-04-18T11:37:17.499Z,716.63
2023-04-18T11:38:17.383Z,718.94
2023-04-18T11:39:17.333Z,723.60
2023-04-18T11:40:17.420Z,725.96
2023-04-18T11:41:17.391Z,723.60
2023-04-18T11:42:17.290Z,729.12
2023-04-18T11:43:17.287Z,730.71
2023-04-18T11:44:17.291Z,732.31
2023-04-18T11:45:17.252Z,733.11
2023-04-18T11:46:17.318Z,732.31
2023-04-18T11:47:17.201Z,734.72
2023-04-18T11:48:17.200Z,736.34
2023-04-18T11:49:17.193Z,740.41
2023-04-18T11:50:17.258Z,738.78
2023-04-18T11:51:17.206Z,748.69
2023-04-18T11:52:17.197Z,749.02
2023-04-18T11:53:17.162Z,747.35
2023-04-18T11:54:17.172Z,753.23
2023-04-18T11:55:17.091Z,750.37
2023-04-18T11:56:17.119Z,747.77
2023-04-18T11:57:17.047Z,747.85
2023-04-18T11:58:17.073Z,748.60
2023-04-18T11:59:17.034Z,752.39
2023-04-18T12:00:17.062Z,754.08
2023-04-18T12:01:17.031Z,760.93
2023-04-18T12:02:17.343Z,768.35
2023-04-18T12:03:17.244Z,766.59
2023-04-18T12:04:17.464Z,770.56
2023-04-18T12:05:17.276Z,771.89
2023-04-18T12:06:17.047Z,774.57
2023-04-18T12:07:16.969Z,773.67
2023-04-18T12:08:16.967Z,772.78
2023-04-18T12:09:16.930Z,767.47
2023-04-18T12:10:16.990Z,773.22
2023-04-18T12:11:16.911Z,767.47
2023-04-18T12:12:16.935Z,769.67
2023-04-18T12:13:16.873Z,771.89
2023-04-18T12:14:16.886Z,763.10
2023-04-18T12:15:16.840Z,755.78
2023-04-18T12:16:16.904Z,759.64
2023-04-18T12:17:16.813Z,756.21
2023-04-18T12:18:16.859Z,738.78
2023-04-18T12:19:16.860Z,729.12
2023-04-18T12:20:16.814Z,729.12
2023-04-18T12:21:16.894Z,746.19
2023-04-18T12:22:16.902Z,750.70
2023-04-18T12:23:16.757Z,749.02
2023-04-18T12:24:16.910Z,751.54
2023-04-18T12:25:16.668Z,753.66
2023-04-18T12:26:16.747Z,761.80
2023-04-18T12:27:16.670Z,757.49
2023-04-18T12:28:16.691Z,756.63
2023-04-18T12:29:16.675Z,746.93
2023-04-18T12:30:16.624Z,741.23
2023-04-18T12:31:16.630Z,737.15
2023-04-18T12:32:16.607Z,731.51
2023-04-18T12:33:16.618Z,729.12
2023-04-18T12:34:16.619Z,722.04
2023-04-18T12:35:16.570Z,725.96
2023-04-18T12:36:16.559Z,731.51
2023-04-18T12:37:16.545Z,722.82
2023-04-18T12:38:16.508Z,718.16
2023-04-18T12:39:16.480Z,698.67
2023-04-18T12:40:16.540Z,691.46